Junction City, KY (40440)

7:37 AM EDT on July 21, 2017 (GMT -0400)
Berwick Drive | | Change Station
Active Advisory: Special Statement

Elev 980 ft 37.66 °N, 84.79 °W | Updated 2 minutes ago

Scattered Clouds
Scattered Clouds
74.8 °F
Feels Like 75 °F
N
0.0
Wind Variable Wind from SSW
Gusts 0.0 mph

Today
High -- | Low -- °F
--% Chance of Precip.
Yesterday
High -- | Low -- °F
Precip. -- in
Pressure 30.08 in
Visibility 4.0 miles
Clouds Scattered Clouds 10000 ft
Heat Index 75 °F
Dew Point 70 °F
Humidity 85%
Rainfall 0.00 in
Snow Depth Not available.
6:34 AM 8:56 PM
Waning Crescent, 5% visible
METAR KDVK 211115Z AUTO 21004KT 4SM BR SCT100 22/22 A3008 RMK AO2
Pressure 30.08 in
Visibility 4.0 miles
Clouds Scattered Clouds 10000 ft
Heat Index 75 °F
Dew Point 70 °F
Humidity 85%
Rainfall 0.00 in
Snow Depth Not available.
6:34 AM 8:56 PM
Waning Crescent, 5% visible
METAR KDVK 211115Z AUTO 21004KT 4SM BR SCT100 22/22 A3008 RMK AO2

Get Your Daily Forecast Email!

Thanks for signing up!

Be on the lookout for a verification email in your inbox.

You'll start receiving severe weather alerts in your inbox..

×

10-Day Weather Forecast

Almanac

Astronomy

Jul. 21, 2017 Rise Set
Actual Time
Civil Twilight
Nautical Twilight
Astronomical Twilight
Moon
Length of Visible Light
Length of Day
Tomorrow will be .
, % of the Moon is Illuminated

Today's Extremes

State Highs State Lows

Community

WunderPhotos

Category 6

Welcome to Category 6. This is the collective home for Weather Underground's featured writeups by Dr. Jeff Masters (right), Bob Henson (left), Chris Burt, and other regular contributors.

Nearby

Air Quality

  Air Quality AQ Index Pollutant
Not available.

Snow Depth

Station Depth Elevation

Earthquake Activity

City Distance Mag. Time & Date
Minimum magnitude displayed is 2.5.

Coastal Water Temperatures

Place Temperature

Stations

Nearby Weather Stations

Station Location Temp. Windchill Dew Point Humidity Wind Precip. Elev Updated Type
                   

Watches & Warnings

Special Statement
Issued: 2:47 AM CDT Jul. 21, 2017 – National Weather Service

... Hot and very humid through Saturday...

High temperatures will reach the lower 90s today and Saturday,
and combined with the oppressive humidity, will result in afternoon
heat indices exceeding 100 degrees. Those planning outdoor
activities should take frequent breaks in the shade, drink plenty
of water, and limit strenuous activities during the early and mid
afternoon hours.


Ras

347 am EDT Fri Jul 21 2017 /247 am CDT Fri Jul 21 2017/

... Hot and very humid through Saturday...

High temperatures will reach the lower 90s today and Saturday,
and combined with the oppressive humidity, will result in afternoon
heat indices exceeding 100 degrees. Those planning outdoor
activities should take frequent breaks in the shade, drink plenty
of water, and limit strenuous activities during the early and mid
afternoon hours.


Ras